createdAt,value
2022-10-22T00:00:35.003Z,14.80
2022-10-22T00:03:01.882Z,14.80
2022-10-22T00:05:28.822Z,14.70
2022-10-22T00:07:55.800Z,14.70
2022-10-22T00:10:22.841Z,14.70
2022-10-22T00:12:49.681Z,14.70
2022-10-22T00:15:16.509Z,14.70
2022-10-22T00:17:43.398Z,14.70
2022-10-22T00:20:10.660Z,14.70
2022-10-22T00:22:37.476Z,14.70
2022-10-22T00:25:04.459Z,14.70
2022-10-22T00:27:31.298Z,14.70
2022-10-22T00:29:58.153Z,14.70
2022-10-22T00:32:25.048Z,14.70
2022-10-22T00:34:51.973Z,14.70
2022-10-22T00:37:18.901Z,14.70
2022-10-22T00:39:45.725Z,14.80
2022-10-22T00:42:16.683Z,14.80
2022-10-22T00:45:08.535Z,14.80
2022-10-22T00:47:35.940Z,14.90
2022-10-22T00:52:35.933Z,14.90
2022-10-22T00:55:02.825Z,15.00
2022-10-22T00:57:29.708Z,15.00
2022-10-22T00:59:56.732Z,15.00
2022-10-22T01:02:23.546Z,15.00
2022-10-22T01:04:50.407Z,14.90
2022-10-22T01:07:19.312Z,14.80
2022-10-22T01:10:04.337Z,14.90
2022-10-22T01:12:42.339Z,14.90
2022-10-22T01:15:51.010Z,14.90
2022-10-22T01:18:39.098Z,14.90
2022-10-22T01:21:18.022Z,14.90
2022-10-22T01:24:13.899Z,14.80
2022-10-22T01:27:07.997Z,14.80
2022-10-22T01:29:41.323Z,14.70
2022-10-22T01:32:13.228Z,14.60
2022-10-22T01:34:41.216Z,14.60
2022-10-22T01:37:08.386Z,14.60
2022-10-22T01:39:35.215Z,14.50
2022-10-22T01:42:02.077Z,14.50
2022-10-22T01:44:30.660Z,14.40
2022-10-22T01:47:12.601Z,14.40
2022-10-22T01:50:02.396Z,14.40
2022-10-22T01:52:56.928Z,14.50
2022-10-22T01:55:29.528Z,14.50
2022-10-22T01:58:10.243Z,14.50
2022-10-22T02:00:38.873Z,14.60
2022-10-22T02:03:13.861Z,14.60
2022-10-22T02:05:49.393Z,14.60
2022-10-22T02:08:19.154Z,14.60
2022-10-22T02:10:46.746Z,14.50
2022-10-22T02:13:28.244Z,14.50
2022-10-22T02:15:55.094Z,14.50
2022-10-22T02:18:23.679Z,14.50
2022-10-22T02:20:50.889Z,14.50
2022-10-22T02:23:17.781Z,14.60
2022-10-22T02:25:45.831Z,14.60
2022-10-22T02:28:16.509Z,14.60
2022-10-22T02:30:44.398Z,14.60
2022-10-22T02:33:16.320Z,14.60
2022-10-22T02:35:43.185Z,14.60
2022-10-22T02:38:10.035Z,14.60
2022-10-22T02:40:36.894Z,14.50
2022-10-22T02:43:06.785Z,14.50
2022-10-22T02:45:33.949Z,14.50
2022-10-22T02:48:00.880Z,14.50
2022-10-22T02:50:27.723Z,14.50
2022-10-22T02:52:54.565Z,14.40
2022-10-22T02:55:21.776Z,14.40
2022-10-22T02:57:48.603Z,14.40
2022-10-22T03:00:15.821Z,14.40
2022-10-22T03:02:43.261Z,14.40
2022-10-22T03:05:10.246Z,14.40
2022-10-22T03:07:37.092Z,14.50
2022-10-22T03:10:04.365Z,14.50
2022-10-22T03:12:31.211Z,14.60
2022-10-22T03:14:58.009Z,14.60
2022-10-22T03:17:25.051Z,14.60
2022-10-22T03:19:51.904Z,14.60
2022-10-22T03:22:23.988Z,14.60
2022-10-22T03:24:52.620Z,14.60
2022-10-22T03:27:20.004Z,14.60
2022-10-22T03:29:47.150Z,14.60
2022-10-22T03:32:14.140Z,14.50
2022-10-22T03:34:40.961Z,14.50
2022-10-22T03:37:07.822Z,14.60
2022-10-22T03:39:35.143Z,14.60
2022-10-22T03:42:02.136Z,14.60
2022-10-22T03:44:29.034Z,14.60
2022-10-22T03:47:16.605Z,14.60
2022-10-22T03:49:43.396Z,14.60
2022-10-22T03:52:12.108Z,14.60
2022-10-22T03:57:11.022Z,14.60
2022-10-22T03:59:39.262Z,14.60
2022-10-22T04:02:06.132Z,14.50
2022-10-22T04:04:32.977Z,14.50
2022-10-22T04:06:59.892Z,14.50
2022-10-22T04:09:26.712Z,14.40
2022-10-22T04:11:53.596Z,14.30
2022-10-22T04:14:20.602Z,14.30
2022-10-22T04:16:47.440Z,14.20
2022-10-22T04:19:14.360Z,14.10
2022-10-22T04:21:41.206Z,14.10
2022-10-22T04:24:08.115Z,14.00
2022-10-22T04:26:34.937Z,13.90
2022-10-22T04:29:01.916Z,13.90
2022-10-22T04:31:28.835Z,13.90
2022-10-22T04:33:56.816Z,13.80
2022-10-22T04:36:24.020Z,13.80
2022-10-22T04:38:58.475Z,13.70
2022-10-22T04:41:30.416Z,13.70
2022-10-22T04:43:57.444Z,13.60
2022-10-22T04:46:25.134Z,13.60
2022-10-22T04:48:52.604Z,13.50
2022-10-22T04:51:20.799Z,13.50
2022-10-22T04:53:47.976Z,13.50
2022-10-22T04:56:25.776Z,13.50
2022-10-22T04:59:00.315Z,13.40
2022-10-22T05:01:41.731Z,13.40
2022-10-22T05:04:12.175Z,13.40
2022-10-22T05:06:39.040Z,13.30
2022-10-22T05:09:07.678Z,13.30
2022-10-22T05:11:36.008Z,13.30
2022-10-22T05:14:04.143Z,13.20
2022-10-22T05:16:31.130Z,13.20
2022-10-22T05:18:59.151Z,13.20
2022-10-22T05:21:26.264Z,13.20
2022-10-22T05:23:53.508Z,13.20
2022-10-22T05:26:20.980Z,13.10
2022-10-22T05:28:48.438Z,13.10
2022-10-22T05:31:15.419Z,13.10
2022-10-22T05:33:42.879Z,13.00
2022-10-22T05:36:13.785Z,13.00
2022-10-22T05:38:40.639Z,12.90
2022-10-22T05:41:09.289Z,12.90
2022-10-22T05:43:36.251Z,12.90
2022-10-22T05:46:07.857Z,12.90
2022-10-22T05:48:34.778Z,12.80
2022-10-22T05:51:06.085Z,12.80
2022-10-22T05:53:33.643Z,12.80
2022-10-22T05:56:02.243Z,12.70
2022-10-22T05:58:29.260Z,12.70
2022-10-22T06:01:00.841Z,12.70
2022-10-22T06:03:28.938Z,12.70
2022-10-22T06:05:55.782Z,12.70
2022-10-22T06:08:22.602Z,12.60
2022-10-22T06:10:49.439Z,12.70
2022-10-22T06:13:16.494Z,12.60
2022-10-22T06:15:43.781Z,12.60
2022-10-22T06:18:11.263Z,12.60
2022-10-22T06:20:38.197Z,12.60
2022-10-22T06:23:05.068Z,12.60
2022-10-22T06:25:31.949Z,12.60
2022-10-22T06:27:58.822Z,12.60
2022-10-22T06:30:25.686Z,12.60
2022-10-22T06:32:52.522Z,12.60
2022-10-22T06:35:19.565Z,12.60
2022-10-22T06:37:47.571Z,12.60
2022-10-22T06:40:14.467Z,12.60
2022-10-22T06:42:41.613Z,12.60
2022-10-22T06:45:09.464Z,12.60
2022-10-22T06:47:36.278Z,12.60
2022-10-22T06:50:03.150Z,12.60
2022-10-22T06:52:29.949Z,12.60
2022-10-22T06:54:56.774Z,12.60
2022-10-22T06:57:23.590Z,12.60
2022-10-22T06:59:50.388Z,12.60
2022-10-22T07:02:17.189Z,12.60
2022-10-22T07:04:44.020Z,12.60
2022-10-22T07:07:10.829Z,12.70
2022-10-22T07:09:39.413Z,12.70
2022-10-22T07:12:06.532Z,12.70
2022-10-22T07:14:33.529Z,12.80
2022-10-22T07:17:00.371Z,12.80
2022-10-22T07:19:27.229Z,12.90
2022-10-22T07:21:54.017Z,12.90
2022-10-22T07:24:20.858Z,13.00
2022-10-22T07:26:47.727Z,13.10
2022-10-22T07:29:15.642Z,13.20
2022-10-22T07:31:42.822Z,13.20
2022-10-22T07:34:09.911Z,13.30
2022-10-22T07:36:36.810Z,13.30
2022-10-22T07:39:03.767Z,13.40
2022-10-22T07:41:30.827Z,13.40
2022-10-22T07:43:58.118Z,13.50
2022-10-22T07:46:25.265Z,13.50
2022-10-22T07:48:52.177Z,13.50
2022-10-22T07:51:19.038Z,13.50
2022-10-22T07:53:45.829Z,13.50
2022-10-22T07:56:13.861Z,13.60
2022-10-22T07:58:41.646Z,13.60
2022-10-22T08:01:08.613Z,13.50
2022-10-22T08:03:35.825Z,13.50
2022-10-22T08:06:02.863Z,13.50
2022-10-22T08:08:32.402Z,13.50
2022-10-22T08:10:59.853Z,13.50
2022-10-22T08:13:27.551Z,13.50
2022-10-22T08:15:57.348Z,13.50
2022-10-22T08:18:24.918Z,13.50
2022-10-22T08:20:52.036Z,13.50
2022-10-22T08:23:18.979Z,13.60
2022-10-22T08:25:45.854Z,13.60
2022-10-22T08:28:12.695Z,13.60
2022-10-22T08:30:40.366Z,13.60
2022-10-22T08:33:07.213Z,13.70
2022-10-22T08:35:34.026Z,13.70
2022-10-22T08:38:00.862Z,13.70
2022-10-22T08:40:32.802Z,13.80
2022-10-22T08:43:32.722Z,13.70
2022-10-22T08:45:59.515Z,13.70
2022-10-22T08:49:05.167Z,13.80
2022-10-22T08:51:34.886Z,13.80
2022-10-22T08:54:12.525Z,13.80
2022-10-22T08:56:39.357Z,13.90
2022-10-22T08:59:09.145Z,13.90
2022-10-22T09:01:42.031Z,13.90
2022-10-22T09:04:22.219Z,14.00
2022-10-22T09:06:50.841Z,14.00
2022-10-22T09:09:20.767Z,14.00
2022-10-22T09:11:52.321Z,14.10
2022-10-22T09:14:23.392Z,14.20
2022-10-22T09:17:18.176Z,14.20
2022-10-22T09:20:09.284Z,14.40
2022-10-22T09:22:52.017Z,14.50
2022-10-22T09:25:26.181Z,14.60
2022-10-22T09:27:58.238Z,14.60
2022-10-22T09:30:27.156Z,14.70
2022-10-22T09:33:07.331Z,14.80
2022-10-22T09:35:35.440Z,14.90
2022-10-22T09:38:07.157Z,15.10
2022-10-22T09:40:49.965Z,15.10
2022-10-22T09:43:17.151Z,15.30
2022-10-22T09:45:44.275Z,15.40
2022-10-22T09:48:26.479Z,15.40
2022-10-22T09:51:00.728Z,15.40
2022-10-22T09:53:29.476Z,15.50
2022-10-22T09:55:58.182Z,15.50
2022-10-22T09:58:25.306Z,15.60
2022-10-22T10:00:57.694Z,15.60
2022-10-22T10:03:27.126Z,15.60
2022-10-22T10:06:00.175Z,15.70
2022-10-22T10:08:30.017Z,15.70
2022-10-22T10:11:10.036Z,15.70
2022-10-22T10:13:45.810Z,15.70
2022-10-22T10:16:24.595Z,15.70
2022-10-22T10:18:55.611Z,15.80
2022-10-22T10:21:32.194Z,15.90
2022-10-22T10:24:06.218Z,15.90
2022-10-22T10:26:38.004Z,16.00
2022-10-22T10:29:04.776Z,15.90
2022-10-22T10:31:38.751Z,15.90
2022-10-22T10:34:11.303Z,15.90
2022-10-22T10:36:52.581Z,15.90
2022-10-22T10:39:40.434Z,16.00
2022-10-22T10:42:20.905Z,16.00
2022-10-22T10:45:05.639Z,16.00
2022-10-22T10:47:50.509Z,16.10
2022-10-22T10:50:28.582Z,16.20
2022-10-22T10:53:10.523Z,16.20
2022-10-22T10:56:18.934Z,16.30
2022-10-22T10:59:09.225Z,16.30
2022-10-22T11:02:13.036Z,16.40
2022-10-22T11:04:39.836Z,16.50
2022-10-22T11:07:11.269Z,16.50
2022-10-22T11:10:06.002Z,16.60
2022-10-22T11:12:34.544Z,16.60
2022-10-22T11:15:25.620Z,16.70
2022-10-22T11:17:52.876Z,16.70
2022-10-22T11:20:30.067Z,16.70
2022-10-22T11:23:25.130Z,16.80
2022-10-22T11:25:52.221Z,16.90
2022-10-22T11:28:36.352Z,17.00
2022-10-22T11:31:04.903Z,17.10
2022-10-22T11:34:32.271Z,17.20
2022-10-22T11:37:09.975Z,17.30
2022-10-22T11:39:49.316Z,17.40
2022-10-22T11:42:21.508Z,17.40
2022-10-22T11:45:07.396Z,17.50
2022-10-22T11:48:06.126Z,17.60
2022-10-22T11:50:47.140Z,17.60
2022-10-22T11:53:39.136Z,17.60
2022-10-22T11:56:38.869Z,17.60
2022-10-22T11:59:08.976Z,17.60
2022-10-22T12:01:54.929Z,17.70
2022-10-22T12:04:36.442Z,17.80
2022-10-22T12:07:03.378Z,17.90
2022-10-22T12:09:32.401Z,17.90
2022-10-22T12:12:13.744Z,17.90
2022-10-22T12:15:17.142Z,17.90
2022-10-22T12:17:58.585Z,17.80
2022-10-22T12:20:26.123Z,17.80
2022-10-22T12:22:52.978Z,17.70
2022-10-22T12:25:24.191Z,17.70
2022-10-22T12:27:53.540Z,17.80
2022-10-22T12:30:30.866Z,17.80
2022-10-22T12:33:00.587Z,17.80
2022-10-22T12:35:29.811Z,18.00
2022-10-22T12:37:57.854Z,18.20
2022-10-22T12:40:35.039Z,18.30
2022-10-22T12:43:11.805Z,18.30
2022-10-22T12:45:38.740Z,18.30
2022-10-22T12:48:22.166Z,18.20
2022-10-22T12:50:51.095Z,18.10
2022-10-22T12:53:29.084Z,18.00
2022-10-22T12:55:56.516Z,18.00
2022-10-22T12:58:26.672Z,18.00
2022-10-22T13:01:02.455Z,18.10
2022-10-22T13:03:50.533Z,18.10
2022-10-22T13:06:20.413Z,18.00
2022-10-22T13:09:07.211Z,18.00
2022-10-22T13:11:49.537Z,17.90
2022-10-22T13:14:26.402Z,17.80
2022-10-22T13:17:16.787Z,17.80
2022-10-22T13:19:46.321Z,17.80
2022-10-22T13:22:52.791Z,17.80
2022-10-22T13:25:28.495Z,17.80
2022-10-22T13:27:56.769Z,17.80
2022-10-22T13:30:36.802Z,17.80
2022-10-22T13:33:05.081Z,17.70
2022-10-22T13:35:33.542Z,17.70
2022-10-22T13:38:00.598Z,17.70
2022-10-22T13:40:27.631Z,17.70
2022-10-22T13:42:54.474Z,17.70
2022-10-22T13:48:04.177Z,17.70
2022-10-22T13:50:33.487Z,17.80
2022-10-22T14:04:39.097Z,18.10
2022-10-22T14:16:54.229Z,18.10
2022-10-22T14:19:21.208Z,18.10
2022-10-22T14:21:49.281Z,18.00
2022-10-22T14:24:16.068Z,18.00
2022-10-22T14:26:43.037Z,18.00
2022-10-22T14:29:11.134Z,18.00
2022-10-22T14:34:07.417Z,17.90
2022-10-22T14:36:44.155Z,17.80
2022-10-22T14:54:37.720Z,17.70
2022-10-22T14:57:04.714Z,17.70
2022-10-22T14:59:31.589Z,17.70
2022-10-22T15:01:58.475Z,17.70
2022-10-22T15:04:27.273Z,17.60
2022-10-22T15:07:07.623Z,17.60
2022-10-22T15:09:34.440Z,17.70
2022-10-22T15:12:01.396Z,17.70
2022-10-22T15:15:07.545Z,17.70
2022-10-22T16:41:58.717Z,16.40
2022-10-22T16:44:25.571Z,16.30
2022-10-22T16:46:52.614Z,16.30
2022-10-22T16:49:19.445Z,16.20
2022-10-22T16:51:46.344Z,16.20
2022-10-22T16:54:14.333Z,16.20
2022-10-22T16:56:41.211Z,16.20
2022-10-22T16:59:08.153Z,16.10
2022-10-22T17:01:40.352Z,16.10
2022-10-22T17:04:07.942Z,16.10
2022-10-22T17:06:34.758Z,16.10
2022-10-22T17:09:01.797Z,16.10
2022-10-22T17:11:34.691Z,16.00
2022-10-22T17:14:02.161Z,16.00
2022-10-22T17:16:29.140Z,16.00
2022-10-22T17:18:56.230Z,16.00
2022-10-22T17:21:23.146Z,16.00
2022-10-22T17:23:53.680Z,15.90
2022-10-22T17:26:22.220Z,15.90
2022-10-22T17:28:49.247Z,15.90
2022-10-22T17:31:27.479Z,15.90
2022-10-22T17:33:55.862Z,15.90
2022-10-22T17:36:23.190Z,15.90
2022-10-22T17:38:51.562Z,15.80
2022-10-22T17:41:20.297Z,15.80
2022-10-22T17:43:47.692Z,15.80
2022-10-22T17:46:19.892Z,15.70
2022-10-22T17:48:51.222Z,15.70
2022-10-22T17:51:18.406Z,15.70
2022-10-22T17:53:50.244Z,15.70
2022-10-22T17:56:18.791Z,15.70
2022-10-22T17:58:45.615Z,15.70
2022-10-22T18:01:22.742Z,15.60
2022-10-22T18:03:49.709Z,15.60
2022-10-22T18:06:16.645Z,15.50
2022-10-22T18:08:43.717Z,15.50
2022-10-22T18:11:12.032Z,15.50
2022-10-22T18:13:38.840Z,15.40
2022-10-22T18:16:06.044Z,15.40
2022-10-22T18:18:33.438Z,15.30
2022-10-22T18:21:00.829Z,15.30
2022-10-22T18:23:27.707Z,15.30
2022-10-22T18:25:54.775Z,15.30
2022-10-22T18:28:21.702Z,15.30
2022-10-22T18:30:48.739Z,15.30
2022-10-22T18:33:16.607Z,15.30
2022-10-22T18:35:43.761Z,15.20
2022-10-22T18:38:10.663Z,15.20
2022-10-22T18:40:38.926Z,15.20
2022-10-22T18:43:05.746Z,15.20
2022-10-22T18:45:32.972Z,15.20
2022-10-22T18:48:00.784Z,15.20
2022-10-22T18:50:27.639Z,15.20
2022-10-22T18:52:54.582Z,15.20
2022-10-22T18:55:21.585Z,15.20
2022-10-22T18:57:48.398Z,15.20
2022-10-22T19:00:15.635Z,15.20
2022-10-22T19:02:43.030Z,15.20
2022-10-22T19:05:10.145Z,15.20
2022-10-22T19:07:36.985Z,15.30
2022-10-22T19:10:04.538Z,15.30
2022-10-22T19:12:31.343Z,15.40
2022-10-22T19:14:58.191Z,15.40
2022-10-22T19:17:25.202Z,15.40
2022-10-22T19:19:52.708Z,15.40
2022-10-22T19:22:20.897Z,15.40
2022-10-22T19:24:50.967Z,15.40
2022-10-22T19:27:18.448Z,15.40
2022-10-22T19:29:45.894Z,15.40
2022-10-22T19:32:13.277Z,15.40
2022-10-22T19:34:41.190Z,15.30
2022-10-22T19:37:08.352Z,15.30
2022-10-22T19:39:35.253Z,15.30
2022-10-22T19:42:04.235Z,15.30
2022-10-22T19:44:31.397Z,15.30
2022-10-22T19:46:58.252Z,15.30
2022-10-22T19:49:25.204Z,15.20
2022-10-22T19:51:52.095Z,15.20
2022-10-22T19:54:19.691Z,15.20
2022-10-22T19:56:46.614Z,15.10
2022-10-22T19:59:14.851Z,15.10
2022-10-22T20:01:41.686Z,15.10
2022-10-22T20:04:09.744Z,15.00
2022-10-22T20:06:36.576Z,15.00
2022-10-22T20:09:03.545Z,15.00
2022-10-22T20:11:30.475Z,15.00
2022-10-22T20:13:57.560Z,15.00
2022-10-22T20:16:26.067Z,14.90
2022-10-22T20:18:53.047Z,15.00
2022-10-22T20:21:20.091Z,14.90
2022-10-22T20:23:47.183Z,14.90
2022-10-22T20:26:14.258Z,14.90
2022-10-22T20:28:41.088Z,14.90
2022-10-22T20:31:12.017Z,15.00
2022-10-22T20:33:39.342Z,15.00
2022-10-22T20:36:08.412Z,15.00
2022-10-22T20:38:38.191Z,15.10
2022-10-22T20:41:07.686Z,15.10
2022-10-22T20:43:34.634Z,15.20
2022-10-22T20:46:01.596Z,15.20
2022-10-22T20:48:31.346Z,15.10
2022-10-22T20:50:59.119Z,15.20
2022-10-22T20:53:26.144Z,15.20
2022-10-22T20:55:54.799Z,15.20
2022-10-22T20:58:24.516Z,15.20
2022-10-22T21:00:53.770Z,15.30
2022-10-22T21:03:20.625Z,15.30
2022-10-22T21:05:47.623Z,15.30
2022-10-22T21:08:17.511Z,15.30
2022-10-22T21:10:49.215Z,15.20
2022-10-22T21:13:16.577Z,15.20
2022-10-22T21:15:43.485Z,15.20
2022-10-22T21:18:10.326Z,15.20
2022-10-22T21:20:39.308Z,15.30
2022-10-22T21:23:06.998Z,15.20
2022-10-22T21:25:33.939Z,15.20
2022-10-22T21:28:00.786Z,15.20
2022-10-22T21:30:27.624Z,15.30
2022-10-22T21:32:56.812Z,15.30
2022-10-22T21:35:24.049Z,15.30
2022-10-22T21:37:50.900Z,15.30
2022-10-22T21:40:17.708Z,15.20
2022-10-22T21:42:44.702Z,15.20
2022-10-22T21:45:13.595Z,15.20
2022-10-22T21:47:41.838Z,15.20
2022-10-22T21:50:09.359Z,15.20
2022-10-22T21:52:36.247Z,15.30
2022-10-22T21:55:03.149Z,15.20
2022-10-22T21:57:29.934Z,15.20
2022-10-22T21:59:56.851Z,15.20
2022-10-22T22:02:24.134Z,15.20
2022-10-22T22:04:54.830Z,15.10
2022-10-22T22:07:22.191Z,15.10
2022-10-22T22:09:50.289Z,15.10
2022-10-22T22:12:17.795Z,15.00
2022-10-22T22:14:44.616Z,15.00
2022-10-22T22:17:11.487Z,15.00
2022-10-22T22:19:38.880Z,14.90
2022-10-22T22:22:05.801Z,15.00
2022-10-22T22:24:32.658Z,15.00
2022-10-22T22:26:59.563Z,14.90
2022-10-22T22:29:26.395Z,15.00
2022-10-22T22:31:53.225Z,15.00
2022-10-22T22:34:20.150Z,15.00
2022-10-22T22:36:47.196Z,15.00
2022-10-22T22:39:16.191Z,15.00
2022-10-22T22:41:43.417Z,15.00
2022-10-22T22:44:10.307Z,15.10
2022-10-22T22:46:37.117Z,15.10
2022-10-22T22:49:04.014Z,15.10
2022-10-22T22:51:30.948Z,15.10
2022-10-22T22:53:58.532Z,15.10
2022-10-22T22:56:26.778Z,15.10
2022-10-22T22:58:53.706Z,15.10
2022-10-22T23:01:23.356Z,15.10
2022-10-22T23:03:56.731Z,15.10
2022-10-22T23:06:25.457Z,15.10
2022-10-22T23:08:52.530Z,15.10
2022-10-22T23:11:19.669Z,15.10
2022-10-22T23:13:46.860Z,15.10
2022-10-22T23:16:15.753Z,15.10
2022-10-22T23:18:43.128Z,15.20
2022-10-22T23:21:17.783Z,15.10
2022-10-22T23:23:45.568Z,15.20
2022-10-22T23:26:21.189Z,15.20
2022-10-22T23:28:48.175Z,15.10
2022-10-22T23:31:15.967Z,15.10
2022-10-22T23:33:43.190Z,15.10
2022-10-22T23:36:10.205Z,15.10
2022-10-22T23:38:37.689Z,15.10
2022-10-22T23:41:04.972Z,15.10
2022-10-22T23:43:32.061Z,15.10
2022-10-22T23:45:58.903Z,15.10
2022-10-22T23:48:25.753Z,15.10
2022-10-22T23:53:20.445Z,15.00
2022-10-22T23:55:47.292Z,15.00
2022-10-22T23:58:14.131Z,15.10
